Latest Weather Observations for Sydney Airport

IDN60801

Issued at 3:04 pm EST Wednesday 6 May 2015 (issued every 30 minutes, with the page automatically refreshed every 10 minutes)

About weather observations | Map of weather stations | Latest weather observations for NSW | Other Formats
Station Details ID: 066037 Name: SYDNEY AIRPORT AMO Lat: -33.95 Lon: 151.17 Height: 6.0 m
Data from the previous 72 hours. | See also: Recent months at Sydney Airport
Date/Time
EST
Temp
°C
App
Temp
°C
Dew
Point
Rel
Hum
%
Delta-T
°C
Wind Press
QNH
hPa
Press
MSL
hPa
Rain
since 9 am
mm
Dir
 
Spd
km/h
Gust
km/h
Spd
kts
Gust
kts
06/02:30pm 20.8 15.2 0.2 25 9.2 W 19 30 10 16 1012.6 1012.6 0.0
06/02:00pm 20.9 14.7 0.0 24 9.3 W 22 30 12 16 1012.7 1012.7 0.0
06/01:30pm 20.3 12.9 -0.4 25 9.1 W 28 35 15 19 1012.7 1012.7 0.0
06/01:00pm 20.4 13.1 0.2 26 9.0 WNW 28 33 15 18 1012.8 1012.8 0.0
06/12:30pm 19.4 12.0 -0.7 26 8.7 W 28 37 15 20 1013.1 1013.1 0.0
06/12:00pm 18.9 11.0 1.3 30 7.9 W 32 44 17 24 1013.7 1013.7 -
06/11:30am 18.0 10.1 0.8 31 7.6 W 32 44 17 24 1014.1 1014.1 0.0
06/11:00am 17.1 7.4 0.6 32 7.2 W 41 56 22 30 1014.2 1014.2 0.0
06/10:30am 16.9 8.4 0.9 34 7.0 W 35 52 19 28 1014.4 1014.4 0.0
06/10:00am 16.7 8.1 0.2 32 7.1 W 35 44 19 24 1014.4 1014.4 0.0
06/09:30am 17.1 9.9 0.9 33 7.1 WNW 28 39 15 21 1014.3 1014.3 0.0
06/09:00am 16.9 11.0 1.6 35 6.8 WNW 22 32 12 17 1014.1 1014.1 0.0
06/08:30am 15.5 10.2 1.9 40 6.0 WNW 19 28 10 15 1013.9 1013.9 0.0
06/08:00am 16.0 11.1 1.8 38 6.3 WNW 17 24 9 13 1013.8 1013.8 0.0
06/07:30am 14.7 9.7 1.6 41 5.7 NW 17 24 9 13 1013.4 1013.4 0.0
06/07:00am 14.4 8.4 0.8 39 5.8 WNW 22 32 12 17 1013.0 1013.0 0.0
06/06:30am 13.8 8.4 1.2 42 5.4 WNW 19 28 10 15 1012.9 1012.9 0.0
06/05:30am 13.9 8.8 1.0 41 5.5 W 17 33 9 18 1012.6 1012.6 0.0
06/05:00am 14.4 8.3 0.5 38 5.9 W 22 35 12 19 1012.2 1012.2 0.0
06/04:30am 15.1 6.7 -0.8 33 6.6 W 33 46 18 25 1011.6 1011.6 0.0
06/03:30am 15.9 7.9 0.6 35 6.6 WSW 32 37 17 20 1010.8 1010.8 0.0
06/03:00am 16.2 8.3 1.1 36 6.6 W 32 46 17 25 1010.3 1010.3 0.0
06/02:30am 16.5 9.2 2.3 38 6.4 WSW 30 35 16 19 1010.3 1010.3 0.0
06/02:00am 16.8 9.1 2.1 37 6.6 WSW 32 39 17 21 1010.1 1010.1 0.0
06/01:30am 16.8 9.8 1.8 36 6.7 W 28 35 15 19 1009.8 1009.8 0.0
06/01:00am 17.1 10.8 1.6 35 6.9 WNW 24 30 13 16 1009.7 1009.7 0.0
06/12:30am 17.6 10.1 1.5 34 7.2 WSW 30 39 16 21 1010.1 1010.1 0.0
 
Date/Time
EST
Temp
°C
App
Temp
°C
Dew
Point
Rel
Hum
%
Delta-T
°C
Wind Press
QNH
hPa
Press
MSL
hPa
Rain
since 9 am
mm
Dir
 
Spd
km/h
Gust
km/h
Spd
kts
Gust
kts
05/11:00pm 19.2 9.9 0.9 29 8.2 WSW 39 50 21 27 1009.0 1009.0 0.0
05/10:30pm 19.7 11.6 3.1 33 7.8 WSW 35 44 19 24 1008.9 1008.9 0.0
05/10:00pm 20.5 14.6 7.5 43 6.7 WSW 28 35 15 19 1008.6 1008.6 0.0
05/09:58pm 20.4 14.6 8.1 45 6.4 WSW 28 35 15 19 1008.5 1008.5 0.0
05/09:30pm 20.5 18.4 9.9 50 5.7 SW 11 15 6 8 1008.0 1008.0 0.0
05/09:00pm 21.3 18.1 9.8 48 6.2 SW 17 26 9 14 1007.3 1007.3 0.0
05/08:30pm 22.2 19.2 9.2 43 7.0 NNW 15 17 8 9 1006.4 1006.4 0.0
05/08:00pm 22.5 18.7 9.1 42 7.2 NNW 19 22 10 12 1005.9 1005.9 0.0
05/07:30pm 23.0 19.0 9.1 41 7.5 N 20 26 11 14 1005.5 1005.5 0.0
05/07:00pm 23.7 20.3 9.1 39 7.9 N 17 22 9 12 1005.2 1005.2 0.0
05/05:30pm 25.1 19.4 8.4 34 9.0 N 28 33 15 18 1003.7 1003.7 0.0
05/05:00pm 26.0 20.5 7.7 31 9.8 NNW 26 33 14 18 1003.3 1003.3 0.0
05/04:30pm 26.8 21.8 8.1 30 10.1 N 24 33 13 18 1003.2 1003.2 0.0
05/04:00pm 26.8 20.7 6.4 27 10.7 NNW 28 39 15 21 1003.3 1003.3 0.0
05/03:30pm 27.4 21.2 7.7 28 10.6 N 30 35 16 19 1003.2 1003.2 0.0
05/03:00pm 27.7 20.7 5.9 25 11.4 NNW 32 39 17 21 1003.2 1003.2 0.0
05/02:30pm 28.2 21.0 2.9 19 12.5 NNW 30 37 16 20 1003.5 1003.5 0.0
05/02:00pm 27.3 22.2 9.2 32 10.0 N 26 33 14 18 1003.9 1003.9 0.0
05/01:30pm 27.5 22.0 7.6 28 10.7 NW 26 35 14 19 1004.0 1004.0 0.0
05/01:00pm 26.7 23.5 9.8 34 9.4 NNW 17 26 9 14 1004.8 1004.8 0.0
05/12:30pm 26.5 22.7 11.0 38 8.8 NW 22 32 12 17 1005.5 1005.5 0.0
05/12:00pm 25.4 20.7 10.8 40 8.2 NW 26 35 14 19 1006.0 1006.0 0.0
05/11:30am 25.7 22.7 12.6 44 7.6 NW 20 33 11 18 1006.5 1006.5 0.0
05/11:00am 25.4 22.6 13.1 46 7.2 NNW 20 28 11 15 1007.2 1007.2 0.0
05/10:30am 23.8 22.7 14.3 55 5.6 NW 13 22 7 12 1007.6 1007.6 0.0
05/10:00am 23.0 22.1 14.9 60 4.8 NW 13 17 7 9 1007.8 1007.8 0.0
05/09:30am 21.4 20.1 14.8 66 3.9 NW 15 19 8 10 1008.1 1008.1 0.0
05/09:00am 20.7 19.7 14.7 68 3.5 NNW 13 15 7 8 1008.2 1008.2 0.0
05/08:30am 18.3 17.3 14.5 78 2.2 NNW 13 15 7 8 1008.4 1008.4 0.0
05/08:00am 17.9 17.0 14.8 82 1.8 NW 13 15 7 8 1008.8 1008.8 0.0
05/07:30am 17.1 16.6 14.9 87 1.3 NW 11 15 6 8 1008.9 1008.9 0.0
05/07:00am 16.2 15.2 14.6 90 0.9 NNW 13 15 7 8 1008.8 1008.8 0.0
05/06:30am 16.5 15.6 14.8 90 1.0 NNW 13 17 7 9 1009.0 1009.0 0.0
05/06:00am 15.8 14.5 14.8 94 0.6 NW 15 17 8 9 1009.2 1009.2 0.0
05/05:30am 16.1 14.9 15.1 94 0.6 NW 15 22 8 12 1009.5 1009.5 0.0
05/05:23am 15.8 14.2 14.9 94 0.5 NW 17 20 9 11 1009.6 1009.6 0.0
05/05:00am 15.4 13.4 14.9 97 0.3 NW 19 24 10 13 1009.8 1009.8 0.0
05/04:43am 15.4 13.8 15.1 98 0.2 NW 17 20 9 11 1009.7 1009.7 0.0
05/04:37am 15.6 14.4 15.1 97 0.3 NW 15 20 8 11 1009.8 1009.8 0.0
05/04:30am 15.4 14.2 15.1 98 0.2 NW 15 19 8 10 1009.8 1009.8 0.0
05/04:25am 15.7 14.6 15.2 97 0.3 NW 15 17 8 9 1009.7 1009.7 0.0
05/04:22am 15.6 14.5 15.3 98 0.2 NW 15 17 8 9 1009.7 1009.7 0.0
05/04:01am 15.2 14.7 14.9 98 0.2 NNW 11 15 6 8 1009.7 1009.7 0.0
05/04:00am 15.2 14.7 14.9 98 0.2 NNW 11 13 6 7 1009.7 1009.7 0.0
05/03:31am 15.2 14.7 14.9 98 0.2 NNW 11 13 6 7 1010.1 1010.1 0.0
05/03:30am 15.1 14.6 14.8 98 0.2 NW 11 13 6 7 1010.1 1010.1 0.0
05/03:01am 15.4 15.0 15.1 98 0.2 NNW 11 13 6 7 1010.7 1010.7 0.0
05/03:00am 15.5 15.0 15.0 97 0.3 NNW 11 13 6 7 1010.7 1010.7 0.0
05/02:52am 15.5 15.4 15.0 97 0.3 NW 9 13 5 7 1010.8 1010.8 0.0
05/02:49am 15.5 15.0 15.0 97 0.3 NW 11 13 6 7 1010.9 1010.9 0.0
05/02:39am 15.6 14.7 14.9 96 0.4 WNW 13 15 7 8 1011.0 1011.0 0.0
05/02:37am 15.5 14.6 14.8 96 0.4 WNW 13 17 7 9 1011.0 1011.0 0.0
05/02:36am 15.6 14.6 14.7 94 0.5 WNW 13 17 7 9 1011.0 1011.0 0.0
05/02:33am 15.7 14.8 14.8 94 0.5 WNW 13 17 7 9 1011.0 1011.0 0.0
05/02:30am 15.8 15.3 14.9 94 0.5 WNW 11 17 6 9 1011.1 1011.1 0.0
05/02:00am 15.8 15.7 14.9 94 0.5 WNW 9 11 5 6 1011.4 1011.4 0.0
05/01:30am 16.0 15.9 15.0 94 0.6 NW 9 9 5 5 1011.6 1011.6 0.0
05/01:00am 16.4 16.3 15.0 91 0.8 N 9 11 5 6 1011.9 1011.9 0.0
05/12:30am 16.5 16.9 15.3 93 0.7 N 7 7 4 4 1012.3 1012.3 0.0
05/12:00am 16.4 17.3 15.2 93 0.7 NNE 4 7 2 4 1012.5 1012.5 0.0
 
Date/Time
EST
Temp
°C
App
Temp
°C
Dew
Point
Rel
Hum
%
Delta-T
°C
Wind Press
QNH
hPa
Press
MSL
hPa
Rain
since 9 am
mm
Dir
 
Spd
km/h
Gust
km/h
Spd
kts
Gust
kts
04/11:30pm 16.9 18.8 15.7 93 0.7 CALM 0 0 0 0 1012.9 1012.9 0.0
04/11:00pm 17.2 19.2 16.0 93 0.7 CALM 0 0 0 0 1013.3 1013.3 0.0
04/10:30pm 16.8 18.8 16.1 96 0.4 CALM 0 0 0 0 1013.5 1013.5 0.0
04/10:00pm 17.0 19.1 16.2 95 0.5 CALM 0 6 0 3 1013.9 1013.9 0.0
04/09:30pm 17.3 19.3 16.1 93 0.7 CALM 0 0 0 0 1013.9 1013.9 0.0
04/09:00pm 17.6 19.7 16.3 92 0.8 CALM 0 0 0 0 1013.9 1013.9 0.0
04/08:30pm 17.8 20.0 16.5 92 0.8 CALM 0 0 0 0 1013.8 1013.8 0.0
04/08:00pm 17.9 19.0 16.6 92 0.8 SW 6 7 3 4 1013.7 1013.7 0.0
04/07:30pm 18.3 19.4 17.0 92 0.8 SSE 7 7 4 4 1013.6 1013.6 0.0
04/07:00pm 18.5 19.4 16.5 88 1.2 SSE 7 9 4 5 1013.7 1013.7 0.0
04/06:30pm 18.8 19.6 16.3 85 1.5 SSE 7 7 4 4 1013.7 1013.7 0.0
04/06:00pm 18.9 19.2 16.0 83 1.7 SE 9 9 5 5 1013.5 1013.5 0.0
04/05:30pm 19.5 19.4 16.0 80 2.1 E 11 13 6 7 1013.3 1013.3 0.0
04/05:00pm 19.7 19.7 16.2 80 2.1 ESE 11 13 6 7 1013.2 1013.2 0.0
04/04:30pm 20.0 20.4 16.2 79 2.3 SE 9 11 5 6 1013.2 1013.2 0.0
04/04:00pm 20.0 19.6 16.2 79 2.3 SSE 13 15 7 8 1013.3 1013.3 0.0
04/03:30pm 20.2 19.3 15.8 76 2.6 SSE 15 19 8 10 1013.3 1013.3 0.0
04/03:00pm 19.9 18.7 16.1 79 2.3 S 17 19 9 10 1013.2 1013.2 0.0
04/02:30pm 20.5 19.4 15.4 72 3.0 SSE 15 17 8 9 1013.2 1013.2 0.0
04/02:00pm 20.3 19.0 15.8 75 2.7 S 17 20 9 11 1013.3 1013.3 0.0
04/01:30pm 20.4 19.2 16.2 77 2.5 S 17 22 9 12 1013.5 1013.5 0.0
04/01:00pm 20.3 18.5 16.1 77 2.5 SSW 20 35 11 19 1013.9 1013.9 0.0
04/12:30pm 19.9 18.2 15.7 77 2.5 SSW 19 24 10 13 1014.4 1014.4 0.0
04/12:00pm 19.8 17.2 15.8 78 2.4 SSW 24 30 13 16 1014.7 1014.7 0.0
04/11:30am 19.6 16.9 15.5 77 2.4 SSW 24 28 13 15 1015.1 1015.1 0.0
04/11:00am 19.6 17.6 15.5 77 2.4 SSW 20 28 11 15 1015.4 1015.4 0.0
04/10:30am 19.5 17.4 15.2 76 2.5 SSW 20 26 11 14 1015.5 1015.5 0.0
04/10:00am 19.2 16.4 15.3 78 2.3 SSW 24 30 13 16 1015.7 1015.7 0.0
04/09:30am 19.0 16.6 15.4 79 2.1 SSW 22 28 12 15 1015.8 1015.8 0.0
04/09:00am 18.9 16.0 15.0 78 2.3 SW 24 30 13 16 1015.9 1015.9 0.4
04/08:30am 18.6 15.5 14.6 77 2.3 SW 24 28 13 15 1016.0 1016.0 0.4
04/08:00am 18.4 16.0 14.4 77 2.3 SW 20 26 11 14 1015.9 1015.9 0.4
04/07:30am 18.3 15.2 14.5 78 2.2 SW 24 32 13 17 1015.5 1015.5 0.4
04/07:00am 18.2 15.9 14.7 80 2.0 SW 20 28 11 15 1015.2 1015.2 0.4
04/06:30am 17.9 16.4 14.2 79 2.1 WSW 15 22 8 12 1015.1 1015.1 0.4
04/06:00am 17.9 16.8 14.2 79 2.1 WSW 13 17 7 9 1014.9 1014.9 0.4
04/05:30am 18.1 16.6 14.1 77 2.3 WSW 15 24 8 13 1014.8 1014.8 0.4
04/05:00am 18.1 17.0 14.3 78 2.2 WSW 13 17 7 9 1014.6 1014.6 0.4
04/04:30am 18.0 16.6 14.5 80 2.0 WSW 15 17 8 9 1014.3 1014.3 0.4
04/04:00am 18.4 17.8 14.6 78 2.2 WSW 11 13 6 7 1014.4 1014.4 0.4
04/03:30am 18.4 16.8 15.0 80 2.0 SW 17 26 9 14 1014.4 1014.4 0.4
04/03:00am 18.3 17.3 14.5 78 2.2 WSW 13 17 7 9 1014.5 1014.5 0.4
04/02:30am 18.5 17.5 14.5 77 2.3 WSW 13 17 7 9 1014.7 1014.7 0.4
04/02:00am 18.5 16.5 14.9 79 2.1 WSW 19 28 10 15 1014.9 1014.9 0.4
04/01:30am 18.9 15.6 15.1 78 2.2 SSW 26 32 14 17 1014.9 1014.9 0.4
04/01:08am 19.0 15.8 15.4 79 2.1 SSW 26 33 14 18 1015.0 1015.0 0.4
04/01:00am 19.0 15.9 15.6 80 2.0 SSW 26 35 14 19 1014.9 1014.9 0.4
04/12:30am 19.0 16.0 15.8 82 1.9 SSW 26 33 14 18 1015.0 1015.0 0.4
04/12:00am 19.1 15.6 15.5 79 2.1 SW 28 35 15 19 1014.9 1014.9 0.4
 
Date/Time
EST
Temp
°C
App
Temp
°C
Dew
Point
Rel
Hum
%
Delta-T
°C
Wind Press
QNH
hPa
Press
MSL
hPa
Rain
since 9 am
mm
Dir
 
Spd
km/h
Gust
km/h
Spd
kts
Gust
kts
03/11:30pm 19.1 15.0 15.9 82 1.9 SSW 32 37 17 20 1015.0 1015.0 0.4
03/11:00pm 19.3 16.1 15.4 78 2.3 SSW 26 33 14 18 1015.3 1015.3 0.4
03/10:30pm 19.4 17.3 15.1 76 2.5 SSW 20 26 11 14 1015.4 1015.4 0.4
03/10:00pm 19.3 17.5 15.6 79 2.2 SSW 19 26 10 14 1015.3 1015.3 0.4
03/09:30pm 19.3 15.8 15.6 79 2.2 SSW 28 43 15 23 1015.2 1015.2 0.4
03/09:00pm 19.4 16.4 15.9 80 2.1 SW 26 33 14 18 1015.3 1015.3 0.4
03/08:30pm 19.4 15.8 16.2 82 1.9 SSW 30 37 16 20 1015.3 1015.3 0.4
03/08:00pm 19.5 14.2 16.2 81 2.0 SSW 39 46 21 25 1014.9 1014.9 0.4
03/07:30pm 19.6 14.7 16.4 82 1.9 SSW 37 48 20 26 1015.0 1015.0 0.4
03/07:00pm 19.7 15.1 16.2 80 2.1 S 35 50 19 27 1015.0 1015.0 0.4
03/06:30pm 19.7 14.4 16.4 81 2.0 SSW 39 52 21 28 1014.6 1014.6 0.4
03/06:00pm 19.6 14.3 16.4 82 1.9 S 39 52 21 28 1014.3 1014.3 0.4
03/05:30pm 19.7 15.2 16.4 81 2.0 SSW 35 46 19 25 1014.0 1014.0 0.4
03/05:00pm 19.7 15.3 16.7 83 1.8 S 35 46 19 25 1013.8 1013.8 0.4
03/04:30pm 19.8 14.9 17.2 85 1.6 S 39 52 21 28 1013.8 1013.8 0.4
03/04:00pm 20.1 15.8 17.7 86 1.5 SSW 37 50 20 27 1013.6 1013.6 0.4
03/03:30pm 20.2 16.2 17.6 85 1.6 SSW 35 46 19 25 1013.1 1013.1 0.4

Other Formats:

Comma delimited format used in spreadsheet applications
http://www.bom.gov.au/fwo/IDN60801/IDN60801.94767.axf

JavaScript Object Notation format (JSON) in row-major order
http://www.bom.gov.au/fwo/IDN60801/IDN60801.94767.json